Notice: Undefined index: language in /home/u908952976/domains/airgaviota-va.com/public_html/vam/index.php on line 25
AirGaviota-VA

... VIRTUAL FLIGHT...OUR PASSION



 METAR AND TAF INFORMATION

Deprecated: The each() function is deprecated. This message will be suppressed on further calls in /home/u908952976/domains/airgaviota-va.com/public_html/vam/helpers/get_metar.php on line 20
METAR FOR LMML
ADDS - METARS form results

(0140 UTC 01 August 2021)
Data provider http://aviationweather.gov/metar/data/
 
METAR text: LMML 010115Z 33004KT CAVOK 27/18 Q1011 NOSIG
Conditions at: LMML (LUQA/MALTA , MT) observed 0115 UTC 01 August 2021
Temperature: 27.0°C (81°F)
Dewpoint: 18.0°C (64°F) [RH = 58%]
Pressure (altimeter): 29.85 inches Hg (1011.0 mb)
Winds: from the NNW (330 degrees) at 5 MPH (4 knots; 2.1 m/s)
Visibility: 6 or more miles (10+ km)
Ceiling: ceiling and visibility are OK
Clouds: unknown
Weather: no significant weather observed at this time

METAR text: LMML 010045Z 33003KT CAVOK 27/19 Q1012 NOSIG
Conditions at: LMML (LUQA/MALTA , MT) observed 0045 UTC 01 August 2021
Temperature: 27.0°C (81°F)
Dewpoint: 19.0°C (66°F) [RH = 62%]
Pressure (altimeter): 29.88 inches Hg (1012.0 mb)
Winds: from the NNW (330 degrees) at 3 MPH (3 knots; 1.5 m/s)
Visibility: 6 or more miles (10+ km)
Ceiling: ceiling and visibility are OK
Clouds: unknown
Weather: no significant weather observed at this time

Forecast for: LMML (LUQA/MALTA , MT)
Text: TAF LMML 312300Z 0100/0124 VRB07KT CAVOK
Forecast period: 0000 UTC 01 August 2021 to 0000 UTC 02 August 2021
Forecast type: FROM: standard forecast or significant change
Winds: variable direction winds at 8 MPH (7 knots; 3.6 m/s)
Visibility: 6 or more miles (10+ km)
Ceiling: unknown
Clouds: missing
Weather: NSW  (no significant weather)

 AIRPORT MAP

 RUNWAY INFORMATION
Runway 05 Runway length 7799 ft Runway width 148 ft
Runway elevation 297 ft Runway displaced threshold 0 ft Runway heading 56
Runway 23 Runway length 7799 ft Runway width 148 ft
Runway elevation 247 ft Runway displaced threshold 0 ft Runway heading 236
Runway 13 Runway length 11627 ft Runway width 197 ft
Runway elevation 256 ft Runway displaced threshold 0 ft Runway heading 135
Runway 31 Runway length 11627 ft Runway width 197 ft
Runway elevation 230 ft Runway displaced threshold 620 ft Runway heading 315

 AIRPORT FREQUENCIES
Type APP Name APP Frequency 128.15 MHZ
Type Distance R Name Frequency 130.975 MHZ
Type Ground Name Ground Frequency 121.6 MHZ
Type Leaving Name Frequency 123.625 MHZ
Type Runway Name Runway Frequency 138.1 MHZ
Type Volmet Name Frequency 126.8 MHZ
Type Weather Name WX Frequency 127.4 MHZ

 AIRPORT NEAR NAVIGATION AIDS
Type DME Name Malta Frequency 110500 KHZ
Type DME Name Luqa Frequency 109700 KHZ
Type NDB Name Luqa Frequency 416 KHZ
Type NDB Name Malta Frequency 395 KHZ